Погода Буритисна неделю

Минас-Жерайс, Бразилия

15 - 21 июля
  • 15июля
    Сегодня
    +14°
    +30°
    Ясно и безоблачно
    ВремяПогодаТемператураВлажностьДавлениеВетер, м/сВероятность осадков
    00:00Ясно и безоблачно+18°C49 %714 мм0.4 м/с5 %
    03:00Ясно и безоблачно+15°C60 %713 мм1.3 м/с5 %
    06:00Ясно и безоблачно+15°C58 %714 мм0.2 м/с5 %
    09:00Ясно и безоблачно+20°C47 %716 мм1.8 м/с5 %
    12:00Небольшая облачность+26°C35 %716 мм2.3 м/с5 %
    15:00Ясно и безоблачно+30°C32 %715 мм2.9 м/с5 %
    18:00Ясно и безоблачно+24°C45 %714 мм2.2 м/с5 %
    21:00Ясно и безоблачно+21°C52 %715 мм2.1 м/с5 %
  • 16июля
    Вторник
    +13°
    +30°
    Ясно и безоблачно
    ВремяПогодаТемператураВлажностьДавлениеВетер, м/сВероятность осадков
    00:00Ясно и безоблачно+18°C55 %714 мм0.5 м/с5 %
    03:00Ясно и безоблачно+16°C64 %713 мм0.6 м/с5 %
    06:00Ясно и безоблачно+15°C67 %714 мм1.2 м/с5 %
    09:00Ясно и безоблачно+21°C48 %717 мм2.5 м/с5 %
    12:00Практически безоблачно+27°C39 %716 мм3.4 м/с5 %
    15:00Ясно и безоблачно+30°C34 %715 мм3.3 м/с5 %
    18:00Ясно и безоблачно+25°C43 %715 мм2.0 м/с5 %
    21:00Ясно и безоблачно+21°C58 %715 мм1.9 м/с5 %
  • 17июля
    Среда
    +15°
    +30°
    Ясно и безоблачно
    ВремяПогодаТемператураВлажностьДавлениеВетер, м/сВероятность осадков
    00:00Ясно и безоблачно+19°C58 %715 мм0.7 м/с5 %
    03:00Ясно и безоблачно+17°C58 %714 мм0.7 м/с5 %
    06:00Ясно и безоблачно+13°C72 %714 мм1.5 м/с5 %
    09:00Ясно и безоблачно+21°C47 %717 мм2.0 м/с5 %
    12:00Ясно и безоблачно+26°C39 %716 мм2.9 м/с5 %
    15:00Ясно и безоблачно+30°C34 %714 мм2.6 м/с5 %
    18:00Ясно и безоблачно+25°C47 %714 мм2.1 м/с5 %
    21:00Ясно и безоблачно+21°C56 %714 мм2.1 м/с5 %
  • 18июля
    Четверг
    +14°
    +31°
    Ясно и безоблачно
    ВремяПогодаТемператураВлажностьДавлениеВетер, м/сВероятность осадков
    00:00Ясно и безоблачно+19°C56 %714 мм0.3 м/с5 %
    03:00Ясно и безоблачно+17°C60 %712 мм0.3 м/с5 %
    06:00Ясно и безоблачно+15°C65 %713 мм0.2 м/с5 %
    09:00Ясно и безоблачно+22°C50 %716 мм1.9 м/с5 %
    12:00Ясно и безоблачно+27°C36 %716 мм2.1 м/с5 %
    15:00Ясно и безоблачно+31°C32 %714 мм2.7 м/с5 %
    18:00Ясно и безоблачно+26°C42 %713 мм2.0 м/с5 %
    21:00Ясно и безоблачно+22°C54 %714 мм1.9 м/с5 %
  • 19июля
    Пятница
    +15°
    +32°
    Ясно и безоблачно
    ВремяПогодаТемператураВлажностьДавлениеВетер, м/сВероятность осадков
    00:00Ясно и безоблачно+18°C59 %714 мм0.6 м/с5 %
    03:00Ясно и безоблачно+18°C62 %713 мм0.5 м/с5 %
    06:00Ясно и безоблачно+16°C64 %714 мм0.4 м/с5 %
    09:00Ясно и безоблачно+22°C51 %716 мм1.6 м/с5 %
    12:00Ясно и безоблачно+28°C31 %716 мм2.7 м/с5 %
    15:00Ясно и безоблачно+31°C27 %714 мм3.4 м/с5 %
    18:00Ясно и безоблачно+26°C38 %714 мм2.0 м/с5 %
    21:00Ясно и безоблачно+24°C44 %715 мм0.8 м/с5 %
Мы используем cookies
Соглашаюсь